createdAt,value
2018-02-22T00:00:26.609Z,-2.00
2018-02-22T00:05:29.391Z,-2.00
2018-02-22T00:10:32.033Z,-2.10
2018-02-22T00:15:36.004Z,-2.20
2018-02-22T00:20:38.689Z,-2.20
2018-02-22T00:25:42.393Z,-2.10
2018-02-22T00:30:46.008Z,-2.20
2018-02-22T00:35:50.145Z,-2.40
2018-02-22T00:40:53.553Z,-2.50
2018-02-22T00:45:57.160Z,-2.50
2018-02-22T00:50:59.778Z,-2.50
2018-02-22T00:56:03.380Z,-2.40
2018-02-22T01:01:06.270Z,-2.50
2018-02-22T01:06:09.418Z,-2.50
2018-02-22T01:11:12.856Z,-2.70
2018-02-22T01:16:16.363Z,-2.70
2018-02-22T01:21:19.836Z,-2.80
2018-02-22T01:26:23.103Z,-2.80
2018-02-22T01:31:25.950Z,-2.90
2018-02-22T01:36:28.869Z,-3.00
2018-02-22T01:41:31.572Z,-3.00
2018-02-22T01:46:35.154Z,-3.20
2018-02-22T01:51:37.934Z,-3.30
2018-02-22T01:56:41.151Z,-3.10
2018-02-22T02:01:43.828Z,-3.10
2018-02-22T02:06:47.382Z,-3.10
2018-02-22T02:11:50.187Z,-3.20
2018-02-22T02:16:54.070Z,-3.20
2018-02-22T02:21:56.911Z,-3.20
2018-02-22T02:27:00.195Z,-3.30
2018-02-22T02:32:03.783Z,-3.30
2018-02-22T02:37:06.633Z,-3.30
2018-02-22T02:42:10.052Z,-3.40
2018-02-22T02:47:14.405Z,-3.40
2018-02-22T02:52:16.998Z,-3.40
2018-02-22T02:57:19.975Z,-3.40
2018-02-22T03:02:22.592Z,-3.40
2018-02-22T03:07:26.851Z,-3.50
2018-02-22T03:12:29.478Z,-3.50
2018-02-22T03:17:33.092Z,-3.40
2018-02-22T03:22:35.696Z,-3.40
2018-02-22T03:27:39.067Z,-3.50
2018-02-22T03:32:42.453Z,-3.50
2018-02-22T03:37:45.303Z,-3.60
2018-02-22T03:42:47.948Z,-3.70
2018-02-22T03:47:50.846Z,-3.80
2018-02-22T03:52:53.453Z,-3.60
2018-02-22T03:57:56.431Z,-3.70
2018-02-22T04:02:59.094Z,-3.70
2018-02-22T04:08:02.504Z,-3.60
2018-02-22T04:13:05.941Z,-3.50
2018-02-22T04:18:09.133Z,-3.60
2018-02-22T04:23:12.491Z,-3.70
2018-02-22T04:28:15.196Z,-3.70
2018-02-22T04:33:17.785Z,-3.70
2018-02-22T04:38:20.844Z,-3.70
2018-02-22T04:43:23.434Z,-3.90
2018-02-22T04:48:27.077Z,-4.00
2018-02-22T04:53:30.474Z,-4.00
2018-02-22T04:58:33.847Z,-4.00
2018-02-22T05:03:36.478Z,-4.00
2018-02-22T05:08:39.658Z,-4.10
2018-02-22T05:13:42.261Z,-4.20
2018-02-22T05:18:45.018Z,-4.40
2018-02-22T05:23:48.379Z,-4.60
2018-02-22T05:28:51.454Z,-4.60
2018-02-22T05:33:54.859Z,-4.60
2018-02-22T05:38:58.868Z,-4.70
2018-02-22T05:44:01.518Z,-4.70
2018-02-22T05:49:04.451Z,-4.70
2018-02-22T05:54:07.087Z,-4.70
2018-02-22T05:59:10.451Z,-4.60
2018-02-22T06:04:13.127Z,-4.80
2018-02-22T06:09:16.303Z,-4.90
2018-02-22T06:14:18.935Z,-4.70
2018-02-22T06:19:22.154Z,-4.60
2018-02-22T06:24:24.794Z,-4.50
2018-02-22T06:29:27.475Z,-4.50
2018-02-22T06:34:30.110Z,-4.50
2018-02-22T06:39:33.470Z,-4.50
2018-02-22T06:44:36.080Z,-4.50
2018-02-22T06:49:39.549Z,-4.20
2018-02-22T06:54:42.183Z,-4.30
2018-02-22T06:59:44.981Z,-4.20
2018-02-22T07:04:47.613Z,-4.10
2018-02-22T07:09:50.899Z,-4.00
2018-02-22T07:14:53.828Z,-3.90
2018-02-22T07:19:56.966Z,-3.90
2018-02-22T07:24:59.564Z,-3.60
2018-02-22T07:30:02.528Z,-3.40
2018-02-22T07:35:05.185Z,-3.20
2018-02-22T07:40:09.239Z,-2.90
2018-02-22T07:45:12.647Z,-2.60
2018-02-22T07:50:16.871Z,-2.40
2018-02-22T07:55:19.495Z,-2.40
2018-02-22T08:00:22.738Z,-2.50
2018-02-22T08:05:25.362Z,-2.20
2018-02-22T08:10:28.306Z,-2.10
2018-02-22T08:15:31.727Z,-1.50
2018-02-22T08:20:34.351Z,-1.50
2018-02-22T08:25:36.983Z,-1.30
2018-02-22T08:30:40.429Z,-1.00
2018-02-22T08:35:43.849Z,-1.00
2018-02-22T08:40:47.287Z,-0.70
2018-02-22T08:45:49.884Z,-0.70
2018-02-22T08:50:52.892Z,-0.40
2018-02-22T08:55:55.524Z,-0.30
2018-02-22T09:00:59.001Z,-0.20
2018-02-22T09:06:01.709Z,-0.30
2018-02-22T09:11:04.479Z,0.00
2018-02-22T09:16:07.076Z,0.20
2018-02-22T09:21:10.453Z,0.10
2018-02-22T09:26:13.076Z,0.30
2018-02-22T09:31:15.944Z,1.50
2018-02-22T09:36:18.575Z,3.00
2018-02-22T09:41:21.755Z,3.50
2018-02-22T09:46:24.430Z,3.50
2018-02-22T09:51:27.250Z,4.80
2018-02-22T09:56:29.876Z,5.10
2018-02-22T10:01:32.630Z,5.60
2018-02-22T10:06:36.027Z,5.70
2018-02-22T10:11:39.359Z,5.60
2018-02-22T10:16:42.739Z,5.50
2018-02-22T10:21:45.690Z,5.50
2018-02-22T10:26:48.312Z,6.70
2018-02-22T10:31:51.475Z,6.00
2018-02-22T10:36:54.068Z,6.60
2018-02-22T10:41:57.209Z,6.60
2018-02-22T10:46:59.905Z,7.30
2018-02-22T10:52:03.714Z,8.70
2018-02-22T10:57:07.094Z,8.90
2018-02-22T11:02:15.987Z,8.90
2018-02-22T11:07:18.560Z,10.00
2018-02-22T11:12:22.504Z,10.30
2018-02-22T11:17:25.859Z,10.60
2018-02-22T11:22:29.011Z,10.60
2018-02-22T11:27:31.621Z,11.50
2018-02-22T11:32:35.086Z,10.60
2018-02-22T11:37:37.666Z,11.20
2018-02-22T11:42:40.826Z,11.20
2018-02-22T11:47:43.412Z,8.80
2018-02-22T11:52:46.214Z,9.30
2018-02-22T11:57:48.846Z,11.70
2018-02-22T12:02:51.820Z,10.90
2018-02-22T12:07:54.415Z,12.00
2018-02-22T12:12:57.284Z,11.50
2018-02-22T12:17:59.920Z,12.20
2018-02-22T12:23:03.474Z,9.80
2018-02-22T12:28:06.595Z,8.10
2018-02-22T12:33:10.127Z,5.60
2018-02-22T12:38:13.492Z,5.90
2018-02-22T12:43:16.172Z,5.90
2018-02-22T12:48:18.847Z,4.60
2018-02-22T12:53:21.694Z,4.90
2018-02-22T12:58:24.333Z,8.60
2018-02-22T13:03:28.592Z,10.80
2018-02-22T13:08:31.259Z,10.80
2018-02-22T13:13:35.327Z,13.60
2018-02-22T13:18:37.959Z,13.60
2018-02-22T13:23:42.033Z,12.50
2018-02-22T13:28:45.377Z,9.40
2018-02-22T13:34:00.647Z,9.30
2018-02-22T13:39:10.652Z,6.40
2018-02-22T13:44:26.128Z,6.30
2018-02-22T13:55:03.657Z,5.00
2018-02-22T14:00:06.707Z,4.40
2018-02-22T14:05:09.322Z,4.50
2018-02-22T14:10:12.841Z,4.90
2018-02-22T14:15:15.464Z,4.90
2018-02-22T14:20:18.834Z,5.40
2018-02-22T14:25:21.470Z,5.20
2018-02-22T14:30:24.408Z,5.00
2018-02-22T14:35:27.178Z,3.80
2018-02-22T14:40:30.849Z,3.70
2018-02-22T14:45:34.262Z,3.20
2018-02-22T14:50:38.036Z,3.20
2018-02-22T14:55:40.804Z,3.20
2018-02-22T15:00:50.238Z,3.10
2018-02-22T15:05:53.937Z,3.00
2018-02-22T15:10:57.199Z,3.00
2018-02-22T15:16:00.152Z,2.90
2018-02-22T15:21:03.624Z,2.80
2018-02-22T15:26:06.427Z,2.80
2018-02-22T15:31:16.714Z,2.90
2018-02-22T15:36:19.464Z,2.90
2018-02-22T15:41:24.376Z,2.40
2018-02-22T15:46:27.095Z,2.30
2018-02-22T15:51:30.661Z,2.10
2018-02-22T15:56:34.068Z,2.00
2018-02-22T16:01:37.714Z,1.90
2018-02-22T16:06:40.358Z,2.00
2018-02-22T16:11:43.184Z,2.00
2018-02-22T16:16:46.734Z,1.90
2018-02-22T16:21:50.529Z,1.80
2018-02-22T16:26:53.280Z,1.80
2018-02-22T16:31:56.327Z,1.60
2018-02-22T16:36:59.124Z,1.50
2018-02-22T16:42:02.512Z,1.40
2018-02-22T16:47:05.164Z,1.40
2018-02-22T16:52:09.514Z,1.20
2018-02-22T16:57:13.148Z,1.00
2018-02-22T17:02:18.207Z,0.60
2018-02-22T17:07:20.876Z,0.60
2018-02-22T17:12:25.265Z,0.40
2018-02-22T17:17:40.426Z,0.40
2018-02-22T17:22:43.625Z,0.50
2018-02-22T17:27:52.134Z,1.10
2018-02-22T17:32:56.740Z,0.10
2018-02-22T17:38:05.278Z,0.10
2018-02-22T17:43:08.076Z,-0.20
2018-02-22T17:48:10.814Z,-0.40
2018-02-22T17:53:14.640Z,-0.40
2018-02-22T17:58:17.612Z,-0.50
2018-02-22T18:03:20.340Z,-0.50
2018-02-22T18:08:23.067Z,-0.50
2018-02-22T18:13:26.585Z,-0.60
2018-02-22T18:18:29.341Z,-0.70
2018-02-22T18:23:32.342Z,-0.80
2018-02-22T18:28:34.997Z,-0.80
2018-02-22T18:33:38.221Z,-0.90
2018-02-22T18:38:47.619Z,-1.00
2018-02-22T18:43:56.063Z,-1.10
2018-02-22T18:48:58.906Z,-1.10
2018-02-22T18:54:02.712Z,-1.20
2018-02-22T18:59:05.351Z,-1.30
2018-02-22T19:04:08.414Z,-1.30
2018-02-22T19:09:11.437Z,-1.30
2018-02-22T19:14:14.808Z,-1.40
2018-02-22T19:19:17.966Z,-1.40
2018-02-22T19:24:20.904Z,-1.60
2018-02-22T19:29:23.936Z,-1.50
2018-02-22T19:34:26.996Z,-1.40
2018-02-22T19:39:29.743Z,-1.40
2018-02-22T19:44:32.544Z,-1.60
2018-02-22T19:49:35.186Z,-1.70
2018-02-22T19:54:38.966Z,-1.70
2018-02-22T19:59:42.595Z,-1.90
2018-02-22T20:04:45.853Z,-1.90
2018-02-22T20:09:48.719Z,-2.00
2018-02-22T20:14:52.225Z,-2.00
2018-02-22T20:19:54.974Z,-2.10
2018-02-22T20:24:58.018Z,-2.20
2018-02-22T20:30:01.557Z,-2.30
2018-02-22T20:35:04.826Z,-2.30
2018-02-22T20:40:07.619Z,-2.20
2018-02-22T20:45:11.093Z,-2.30
2018-02-22T20:50:13.872Z,-2.30
2018-02-22T20:55:18.847Z,-2.40
2018-02-22T21:00:22.269Z,-2.50
2018-02-22T21:05:25.501Z,-2.60
2018-02-22T21:10:28.162Z,-2.60
2018-02-22T21:15:32.492Z,-2.70
2018-02-22T21:20:35.244Z,-2.70
2018-02-22T21:25:38.840Z,-2.70
2018-02-22T21:30:41.573Z,-2.70
2018-02-22T21:35:45.060Z,-2.80
2018-02-22T21:40:47.803Z,-2.80
2018-02-22T21:45:50.971Z,-2.80
2018-02-22T21:50:53.729Z,-2.90
2018-02-22T21:55:56.490Z,-3.00
2018-02-22T22:00:59.138Z,-3.00
2018-02-22T22:06:02.289Z,-3.10
2018-02-22T22:11:05.006Z,-3.00
2018-02-22T22:16:07.990Z,-3.10
2018-02-22T22:21:11.458Z,-3.00
2018-02-22T22:26:15.057Z,-3.00
2018-02-22T22:31:17.946Z,-3.10
2018-02-22T22:36:21.249Z,-3.10
2018-02-22T22:41:24.663Z,-3.30
2018-02-22T22:46:28.304Z,-3.30
2018-02-22T22:51:30.969Z,-3.30
2018-02-22T22:56:34.615Z,-3.40
2018-02-22T23:01:37.368Z,-3.50
2018-02-22T23:06:40.713Z,-3.50
2018-02-22T23:11:43.497Z,-3.60
2018-02-22T23:16:46.669Z,-3.70
2018-02-22T23:21:49.360Z,-3.80
2018-02-22T23:26:52.897Z,-3.80
2018-02-22T23:31:55.554Z,-3.70
2018-02-22T23:36:59.184Z,-3.80
2018-02-22T23:42:07.552Z,-3.80
2018-02-22T23:47:10.436Z,-3.90
2018-02-22T23:52:13.292Z,-4.00
2018-02-22T23:57:16.244Z,-4.00
